Time,TemperatureF,DewpointF,PressureIn,WindDirection,WindDirectionDegrees,WindSpeedMPH,WindSpeedGustMPH,Humidity,HourlyPrecipIn,Conditions,Clouds,dailyrainin,SoftwareType,DateUTC
2013-03-19 00:01:00,28.0,12.0,29.95,West,261,7.0,-999.0,50,-99.99,,,-99.99,,2013-03-19 06:01:00,
2013-03-19 00:11:00,28.0,12.0,29.95,West,261,7.0,-999.0,50,-99.99,,,-99.99,,2013-03-19 06:11:00,
2013-03-19 00:21:00,27.0,10.0,29.96,SW,227,3.0,-999.0,49,-99.99,,,-99.99,,2013-03-19 06:21:00,
2013-03-19 00:31:00,27.0,10.0,29.96,WSW,251,6.0,-999.0,48,-99.99,,,-99.99,,2013-03-19 06:31:00,
2013-03-19 00:42:00,27.0,10.0,29.96,WSW,251,6.0,-999.0,48,-99.99,,,-99.99,,2013-03-19 06:42:00,
2013-03-19 00:52:00,27.0,9.0,29.97,WSW,243,8.0,-999.0,45,-99.99,,,-99.99,,2013-03-19 06:52:00,
2013-03-19 01:01:00,26.0,8.0,29.98,SW,236,6.0,-999.0,46,-99.99,,,-99.99,,2013-03-19 07:01:00,
2013-03-19 01:11:00,26.0,8.0,29.98,SW,236,6.0,-999.0,46,-99.99,,,-99.99,,2013-03-19 07:11:00,
2013-03-19 01:21:00,25.0,8.0,29.98,SW,230,4.0,-999.0,47,-99.99,,,-99.99,,2013-03-19 07:21:00,
2013-03-19 01:32:00,25.0,8.0,29.98,WSW,239,3.0,-999.0,47,-99.99,,,-99.99,,2013-03-19 07:32:00,
2013-03-19 01:42:00,25.0,8.0,29.98,WSW,239,3.0,-999.0,47,-99.99,,,-99.99,,2013-03-19 07:42:00,
2013-03-19 01:52:00,26.0,7.0,29.98,SSW,203,4.0,-999.0,43,-99.99,,,-99.99,,2013-03-19 07:52:00,
2013-03-19 02:02:00,24.0,8.0,29.99,West,264,3.0,-999.0,49,-99.99,,,-99.99,,2013-03-19 08:02:00,
2013-03-19 02:11:00,24.0,8.0,29.99,West,264,3.0,-999.0,49,-99.99,,,-99.99,,2013-03-19 08:11:00,
2013-03-19 02:21:00,23.0,8.0,30.00,WSW,240,1.0,-999.0,52,-99.99,,,-99.99,,2013-03-19 08:21:00,
2013-03-19 02:31:00,22.0,8.0,30.01,SW,226,4.0,-999.0,53,-99.99,,,-99.99,,2013-03-19 08:31:00,
2013-03-19 02:41:00,22.0,8.0,30.01,SW,226,4.0,-999.0,53,-99.99,,,-99.99,,2013-03-19 08:41:00,
2013-03-19 02:52:00,21.0,7.0,30.01,SSW,198,1.0,-999.0,54,-99.99,,,-99.99,,2013-03-19 08:52:00,
2013-03-19 03:02:00,19.0,7.0,30.02,WSW,238,0.0,-999.0,58,-99.99,,,-99.99,,2013-03-19 09:02:00,
2013-03-19 03:11:00,19.0,7.0,30.02,WSW,238,0.0,-999.0,58,-99.99,,,-99.99,,2013-03-19 09:11:00,
2013-03-19 03:22:00,19.0,8.0,30.02,SSW,210,3.0,-999.0,61,-99.99,,,-99.99,,2013-03-19 09:22:00,
2013-03-19 03:32:00,20.0,8.0,30.02,West,280,1.0,-999.0,60,-99.99,,,-99.99,,2013-03-19 09:32:00,
2013-03-19 03:42:00,20.0,8.0,30.02,West,280,1.0,-999.0,60,-99.99,,,-99.99,,2013-03-19 09:42:00,
2013-03-19 03:53:00,18.0,7.0,30.01,WSW,241,0.0,-999.0,62,-99.99,,,-99.99,,2013-03-19 09:53:00,
2013-03-19 04:03:00,20.0,8.0,30.01,SSW,202,2.0,-999.0,60,-99.99,,,-99.99,,2013-03-19 10:03:00,
2013-03-19 04:12:00,20.0,8.0,30.01,SSW,202,2.0,-999.0,60,-99.99,,,-99.99,,2013-03-19 10:12:00,
2013-03-19 04:22:00,18.0,8.0,30.02,SW,226,2.0,-999.0,63,-99.99,,,-99.99,,2013-03-19 10:22:00,
2013-03-19 04:32:00,19.0,7.0,30.02,SSW,209,2.0,-999.0,60,-99.99,,,-99.99,,2013-03-19 10:32:00,
2013-03-19 04:42:00,19.0,7.0,30.02,SSW,209,2.0,-999.0,60,-99.99,,,-99.99,,2013-03-19 10:42:00,
2013-03-19 04:53:00,19.0,7.0,30.04,SSW,211,4.0,-999.0,59,-99.99,,,-99.99,,2013-03-19 10:53:00,
2013-03-19 05:02:00,18.0,7.0,30.04,SSW,211,2.0,-999.0,61,-99.99,,,-99.99,,2013-03-19 11:02:00,
2013-03-19 05:11:00,18.0,7.0,30.04,SSW,211,2.0,-999.0,61,-99.99,,,-99.99,,2013-03-19 11:11:00,
2013-03-19 05:22:00,15.0,4.0,30.05,East,94,2.0,-999.0,60,-99.99,,,-99.99,,2013-03-19 11:22:00,
2013-03-19 05:32:00,14.0,5.0,30.05,ESE,118,3.0,-999.0,67,-99.99,,,-99.99,,2013-03-19 11:32:00,
2013-03-19 05:41:00,14.0,5.0,30.05,ESE,118,3.0,-999.0,67,-99.99,,,-99.99,,2013-03-19 11:41:00,
2013-03-19 05:52:00,14.0,6.0,30.05,SE,136,3.0,-999.0,69,-99.99,,,-99.99,,2013-03-19 11:52:00,
2013-03-19 06:02:00,15.0,6.0,30.06,SE,134,2.0,-999.0,67,-99.99,,,-99.99,,2013-03-19 12:02:00,
2013-03-19 06:12:00,15.0,6.0,30.06,SE,124,2.0,-999.0,68,-99.99,,,-99.99,,2013-03-19 12:12:00,
2013-03-19 06:22:00,15.0,6.0,30.06,SE,124,2.0,-999.0,68,-99.99,,,-99.99,,2013-03-19 12:22:00,
2013-03-19 06:32:00,16.0,6.0,30.08,SE,135,1.0,-999.0,65,-99.99,,,-99.99,,2013-03-19 12:32:00,
2013-03-19 06:42:00,16.0,6.0,30.08,SE,135,1.0,-999.0,65,-99.99,,,-99.99,,2013-03-19 12:42:00,
2013-03-19 06:52:00,16.0,6.0,30.08,SE,144,4.0,-999.0,64,-99.99,,,-99.99,,2013-03-19 12:52:00,
2013-03-19 07:02:00,15.0,5.0,30.09,South,169,2.0,-999.0,63,-99.99,,,-99.99,,2013-03-19 13:02:00,
2013-03-19 07:11:00,15.0,5.0,30.09,South,169,2.0,-999.0,63,-99.99,,,-99.99,,2013-03-19 13:11:00,
2013-03-19 07:22:00,14.0,5.0,30.10,SW,214,1.0,-999.0,66,-99.99,,,-99.99,,2013-03-19 13:22:00,
2013-03-19 07:31:00,14.0,5.0,30.11,WSW,258,0.0,-999.0,67,-99.99,,,-99.99,,2013-03-19 13:31:00,
2013-03-19 07:41:00,14.0,5.0,30.11,WSW,258,0.0,-999.0,67,-99.99,,,-99.99,,2013-03-19 13:41:00,
2013-03-19 07:52:00,12.0,4.0,30.11,WSW,258,0.0,-999.0,69,-99.99,,,-99.99,,2013-03-19 13:52:00,
2013-03-19 08:01:00,12.0,4.0,30.12,WSW,258,0.0,-999.0,70,-99.99,,,-99.99,,2013-03-19 14:01:00,
2013-03-19 08:11:00,12.0,4.0,30.12,WSW,258,0.0,-999.0,70,-99.99,,,-99.99,,2013-03-19 14:11:00,
2013-03-19 08:22:00,12.0,4.0,30.12,WSW,258,0.0,-999.0,69,-99.99,,,-99.99,,2013-03-19 14:22:00,
2013-03-19 08:31:00,13.0,5.0,30.13,WSW,258,0.0,-999.0,71,-99.99,,,-99.99,,2013-03-19 14:31:00,
2013-03-19 08:41:00,13.0,5.0,30.13,WSW,258,0.0,-999.0,71,-99.99,,,-99.99,,2013-03-19 14:41:00,
2013-03-19 08:52:00,15.0,6.0,30.14,NNW,344,1.0,-999.0,66,-99.99,,,-99.99,,2013-03-19 14:52:00,
2013-03-19 09:01:00,20.0,8.0,30.14,SE,138,3.0,-999.0,58,-99.99,,,-99.99,,2013-03-19 15:01:00,
2013-03-19 09:22:00,21.0,8.0,30.14,SSE,154,2.0,-999.0,56,-99.99,,,-99.99,,2013-03-19 15:22:00,
2013-03-19 09:33:00,22.0,8.0,30.15,SSW,202,3.0,-999.0,55,-99.99,,,-99.99,,2013-03-19 15:33:00,
2013-03-19 09:43:00,22.0,8.0,30.15,SSW,202,3.0,-999.0,55,-99.99,,,-99.99,,2013-03-19 15:43:00,
2013-03-19 09:53:00,23.0,8.0,30.15,SW,224,1.0,-999.0,53,-99.99,,,-99.99,,2013-03-19 15:53:00,
2013-03-19 10:03:00,23.0,8.0,30.15,SW,224,0.0,-999.0,53,-99.99,,,-99.99,,2013-03-19 16:03:00,
2013-03-19 10:12:00,23.0,8.0,30.15,SW,224,0.0,-999.0,53,-99.99,,,-99.99,,2013-03-19 16:12:00,
2013-03-19 10:23:00,23.0,8.0,30.15,SW,224,0.0,-999.0,53,-99.99,,,-99.99,,2013-03-19 16:23:00,
2013-03-19 10:33:00,23.0,8.0,30.15,SW,224,0.0,-999.0,53,-99.99,,,-99.99,,2013-03-19 16:33:00,
2013-03-19 12:23:00,34.0,5.0,30.17,SE,135,7.0,-999.0,29,-99.99,,,-99.99,,2013-03-19 18:23:00,
2013-03-19 12:34:00,34.0,5.0,30.16,SE,143,8.0,-999.0,29,-99.99,,,-99.99,,2013-03-19 18:34:00,
2013-03-19 12:43:00,34.0,5.0,30.16,SE,143,8.0,-999.0,29,-99.99,,,-99.99,,2013-03-19 18:43:00,
2013-03-19 12:53:00,35.0,1.0,30.17,South,171,7.0,-999.0,23,-99.99,,,-99.99,,2013-03-19 18:53:00,
2013-03-19 13:01:00,36.0,1.0,30.16,SE,139,6.0,-999.0,22,-99.99,,,-99.99,,2013-03-19 19:01:00,
2013-03-19 13:11:00,36.0,1.0,30.16,SE,139,6.0,-999.0,22,-99.99,,,-99.99,,2013-03-19 19:11:00,
2013-03-19 13:21:00,36.0,3.0,30.16,ENE,74,5.0,-999.0,24,-99.99,,,-99.99,,2013-03-19 19:21:00,
2013-03-19 13:31:00,36.0,3.0,30.16,NNE,32,4.0,-999.0,24,-99.99,,,-99.99,,2013-03-19 19:31:00,
2013-03-19 13:42:00,36.0,3.0,30.16,NNE,32,4.0,-999.0,24,-99.99,,,-99.99,,2013-03-19 19:42:00,
2013-03-19 13:53:00,37.0,-3.0,30.17,NE,50,6.0,-999.0,18,-99.99,,,-99.99,,2013-03-19 19:53:00,
2013-03-19 14:02:00,38.0,-3.0,30.17,WSW,250,2.0,-999.0,17,-99.99,,,-99.99,,2013-03-19 20:02:00,
2013-03-19 14:22:00,36.0,-2.0,30.17,West,276,7.0,-999.0,19,-99.99,,,-99.99,,2013-03-19 20:22:00,
2013-03-19 14:32:00,37.0,-3.0,30.17,WNW,295,3.0,-999.0,18,-99.99,,,-99.99,,2013-03-19 20:32:00,
2013-03-19 14:42:00,37.0,-3.0,30.17,WNW,295,3.0,-999.0,18,-99.99,,,-99.99,,2013-03-19 20:42:00,
2013-03-19 14:52:00,37.0,-6.0,30.17,WNW,282,5.0,-999.0,15,-99.99,,,-99.99,,2013-03-19 20:52:00,
2013-03-19 15:01:00,39.0,1.0,30.17,WNW,288,2.0,-999.0,20,-99.99,,,-99.99,,2013-03-19 21:01:00,
2013-03-19 15:11:00,38.0,-2.0,30.17,NW,305,4.0,-999.0,18,-99.99,,,-99.99,,2013-03-19 21:11:00,
2013-03-19 15:22:00,38.0,-2.0,30.17,NW,305,4.0,-999.0,18,-99.99,,,-99.99,,2013-03-19 21:22:00,
2013-03-19 15:32:00,38.0,-1.0,30.17,West,271,5.0,-999.0,19,-99.99,,,-99.99,,2013-03-19 21:32:00,
2013-03-19 15:42:00,38.0,-1.0,30.17,West,271,5.0,-999.0,19,-99.99,,,-99.99,,2013-03-19 21:42:00,
2013-03-19 15:53:00,38.0,-2.0,30.16,North,351,5.0,-999.0,18,-99.99,,,-99.99,,2013-03-19 21:53:00,
2013-03-19 16:02:00,39.0,2.0,30.17,SSW,205,4.0,-999.0,21,-99.99,,,-99.99,,2013-03-19 22:02:00,
2013-03-19 16:12:00,39.0,2.0,30.17,SSW,205,4.0,-999.0,21,-99.99,,,-99.99,,2013-03-19 22:12:00,
2013-03-19 16:22:00,40.0,1.0,30.16,SSE,160,2.0,-999.0,19,-99.99,,,-99.99,,2013-03-19 22:22:00,
2013-03-19 16:32:00,40.0,-3.0,30.19,SSW,205,2.0,-999.0,16,-99.99,,,-99.99,,2013-03-19 22:32:00,
2013-03-19 16:42:00,40.0,-3.0,30.19,WNW,294,2.0,-999.0,16,-99.99,,,-99.99,,2013-03-19 22:42:00,
2013-03-19 16:53:00,40.0,-3.0,30.19,WNW,294,2.0,-999.0,16,-99.99,,,-99.99,,2013-03-19 22:53:00,
2013-03-19 17:02:00,39.0,-6.0,30.19,WSW,254,5.0,-999.0,14,-99.99,,,-99.99,,2013-03-19 23:02:00,
2013-03-19 17:11:00,39.0,-6.0,30.19,WSW,254,5.0,-999.0,14,-99.99,,,-99.99,,2013-03-19 23:11:00,
2013-03-19 17:21:00,39.0,-3.0,30.19,SSW,210,3.0,-999.0,16,-99.99,,,-99.99,,2013-03-19 23:21:00,
2013-03-19 17:32:00,40.0,-7.0,30.18,WSW,237,3.0,-999.0,13,-99.99,,,-99.99,,2013-03-19 23:32:00,
2013-03-19 17:42:00,40.0,-7.0,30.18,WSW,237,3.0,-999.0,13,-99.99,,,-99.99,,2013-03-19 23:42:00,
2013-03-19 17:52:00,38.0,-3.0,30.18,NNW,338,4.0,-999.0,17,-99.99,,,-99.99,,2013-03-19 23:52:00,
2013-03-19 18:02:00,39.0,-5.0,30.18,NNW,338,0.0,-999.0,15,-99.99,,,-99.99,,2013-03-20 00:02:00,
2013-03-19 18:12:00,39.0,-5.0,30.18,NNW,338,0.0,-999.0,15,-99.99,,,-99.99,,2013-03-20 00:12:00,
2013-03-19 18:22:00,39.0,-6.0,30.18,West,263,3.0,-999.0,14,-99.99,,,-99.99,,2013-03-20 00:22:00,
2013-03-19 18:32:00,38.0,-3.0,30.17,West,267,4.0,-999.0,17,-99.99,,,-99.99,,2013-03-20 00:32:00,
2013-03-19 18:42:00,38.0,-3.0,30.17,West,267,4.0,-999.0,17,-99.99,,,-99.99,,2013-03-20 00:42:00,
2013-03-19 18:52:00,39.0,-1.0,30.17,West,267,1.0,-999.0,18,-99.99,,,-99.99,,2013-03-20 00:52:00,
2013-03-19 19:01:00,37.0,1.0,30.16,West,267,0.0,-999.0,21,-99.99,,,-99.99,,2013-03-20 01:01:00,
2013-03-19 19:11:00,36.0,-3.0,30.16,West,267,0.0,-999.0,18,-99.99,,,-99.99,,2013-03-20 01:11:00,
2013-03-19 19:22:00,36.0,-3.0,30.16,West,267,0.0,-999.0,18,-99.99,,,-99.99,,2013-03-20 01:22:00,
2013-03-19 19:32:00,35.0,-7.0,30.16,West,267,0.0,-999.0,16,-99.99,,,-99.99,,2013-03-20 01:32:00,
2013-03-19 19:52:00,31.0,-1.0,30.18,West,267,0.0,-999.0,25,-99.99,,,-99.99,,2013-03-20 01:52:00,
2013-03-19 20:02:00,30.0,1.0,30.18,West,267,1.0,-999.0,28,-99.99,,,-99.99,,2013-03-20 02:02:00,
2013-03-19 20:11:00,30.0,1.0,30.18,West,267,1.0,-999.0,28,-99.99,,,-99.99,,2013-03-20 02:11:00,
2013-03-19 20:21:00,28.0,1.0,30.18,West,267,1.0,-999.0,31,-99.99,,,-99.99,,2013-03-20 02:21:00,
2013-03-19 20:31:00,28.0,1.0,30.18,West,267,1.0,-999.0,30,-99.99,,,-99.99,,2013-03-20 02:31:00,
2013-03-19 20:42:00,28.0,1.0,30.18,West,267,1.0,-999.0,30,-99.99,,,-99.99,,2013-03-20 02:42:00,
2013-03-19 20:52:00,25.0,2.0,30.19,West,267,0.0,-999.0,37,-99.99,,,-99.99,,2013-03-20 02:52:00,
2013-03-19 21:01:00,28.0,3.0,30.19,West,267,1.0,-999.0,34,-99.99,,,-99.99,,2013-03-20 03:01:00,
2013-03-19 21:11:00,24.0,5.0,30.19,West,267,1.0,-999.0,44,-99.99,,,-99.99,,2013-03-20 03:11:00,
2013-03-19 21:22:00,24.0,5.0,30.19,West,267,1.0,-999.0,44,-99.99,,,-99.99,,2013-03-20 03:22:00,
2013-03-19 21:32:00,20.0,6.0,30.18,West,267,1.0,-999.0,54,-99.99,,,-99.99,,2013-03-20 03:32:00,
2013-03-19 21:42:00,20.0,6.0,30.18,West,267,1.0,-999.0,54,-99.99,,,-99.99,,2013-03-20 03:42:00,
2013-03-19 21:53:00,19.0,5.0,30.18,West,267,1.0,-999.0,53,-99.99,,,-99.99,,2013-03-20 03:53:00,
2013-03-19 22:02:00,20.0,4.0,30.18,West,267,1.0,-999.0,49,-99.99,,,-99.99,,2013-03-20 04:02:00,
2013-03-19 22:12:00,20.0,4.0,30.18,West,267,1.0,-999.0,49,-99.99,,,-99.99,,2013-03-20 04:12:00,
2013-03-19 22:22:00,16.0,4.0,30.19,West,267,1.0,-999.0,59,-99.99,,,-99.99,,2013-03-20 04:22:00,
2013-03-19 22:32:00,15.0,4.0,30.18,West,267,1.0,-999.0,62,-99.99,,,-99.99,,2013-03-20 04:32:00,
2013-03-19 22:42:00,15.0,4.0,30.18,West,267,1.0,-999.0,62,-99.99,,,-99.99,,2013-03-20 04:42:00,
2013-03-19 22:52:00,16.0,5.0,30.19,West,267,2.0,-999.0,61,-99.99,,,-99.99,,2013-03-20 04:52:00,
2013-03-19 23:02:00,16.0,5.0,30.19,WNW,302,2.0,-999.0,60,-99.99,,,-99.99,,2013-03-20 05:02:00,
2013-03-19 23:12:00,15.0,5.0,30.19,NW,323,2.0,-999.0,63,-99.99,,,-99.99,,2013-03-20 05:12:00,
2013-03-19 23:22:00,15.0,5.0,30.19,NW,323,2.0,-999.0,63,-99.99,,,-99.99,,2013-03-20 05:22:00,
2013-03-19 23:31:00,14.0,4.0,30.19,NW,323,1.0,-999.0,64,-99.99,,,-99.99,,2013-03-20 05:31:00,
2013-03-19 23:42:00,14.0,4.0,30.19,NW,323,1.0,-999.0,64,-99.99,,,-99.99,,2013-03-20 05:42:00,
2013-03-19 23:52:00,15.0,5.0,30.19,NNW,348,1.0,-999.0,63,-99.99,,,-99.99,,2013-03-20 05:52:00,